KPUJ Airport (Paulding Northwest Atlanta) Information

FAA: PUJ - ICAO: KPUJ

KPUJ Airport Location

State Georgia
County Paulding
City Atlanta
KPUJ Airport is 33 miles west of Atlanta, GA.
Latitude 33-54-43.3550N
Longitude 084-56-26.2300W
Elevation 1,289ft

KPUJ Airport METARs

METAR KPUJ 262235Z AUTO 30004KT 10SM CLR 06/M03 A3011 RMK AO2
Altimeter 30.11"
Temperature 6.0°C (42.8°F)
Wind 300° at 4KT
Clouds Skies are clear.
Visibility 10.0mi
Time observed: 2021-11-26T22:35:00Z

KPUJ Airport Details

Status Operational
Activation November 2008
Ownership Public
Usage Public
Chart ATLANTA
ATC on-site No
Beacon schedule sunset-sunrise
Beacon color clear green

KPUJ Airport Contacts

Owner PAULDING CO BOARD OF COMMISSIONERS
Owner address 240 CONSTITUTION BLVD, DALLAS, GA 30132
Owner phone 770-443-7550
Manager JIMMY BERRONG
Manager address 99 COURTHOUSE HILL, SUITE H, DAHLONEGA, GA 30533
Manager phone (706) 265-0284

KPUJ Airport (Paulding Northwest Atlanta) Radio Frequencies

KPUJ (Airport) Radio Frequencies

UNICOM 123.075
Common traffic advisory frequency (CTAF) 123.075